Mancos, Colorado
Current Conditions -  °F | °C
As of 4:53 AM on Wednesday 26 Nov 2014 (Local Time) from KCEZ Reporting Station
Clear Clear  
Wind Chill:   Ceiling: Unl
Heat Index: 20°   Visibility: 10mi
Dew Point: 14°   Wind: 9mph
Humidity: 78%   Direction: 60°ENE
Pressure: 30.36"   Gusts: NA
Location:  37.34°N, 108.29°W
Report Text: KCEZ 261153Z AUTO 06008KT 10SM CLR M07/M10 A3036 RMK AO2 SLP294 T10671100 11039 21067 55001
Loading
Personal Weather Stations






























Interactive Weather Map New forecast layout! Learn more

10-Day Weather Forecast

Advertisements
Track Severe Weather on mobile